sensor_id;sensor_type;location;lat;lon;timestamp;P1;durP1;ratioP1;P2;durP2;ratioP2
4214;SDS011;2121;48.062;7.850;2023-05-02T00:00:35;6.93;;;5.60;;
4214;SDS011;2121;48.062;7.850;2023-05-02T00:03:02;5.63;;;5.13;;
4214;SDS011;2121;48.062;7.850;2023-05-02T00:05:30;9.40;;;5.93;;
4214;SDS011;2121;48.062;7.850;2023-05-02T00:07:55;7.20;;;5.50;;
4214;SDS011;2121;48.062;7.850;2023-05-02T00:10:21;6.53;;;5.60;;
4214;SDS011;2121;48.062;7.850;2023-05-02T00:12:47;6.20;;;5.60;;
4214;SDS011;2121;48.062;7.850;2023-05-02T00:15:13;5.80;;;5.30;;
4214;SDS011;2121;48.062;7.850;2023-05-02T00:17:39;6.03;;;5.53;;
4214;SDS011;2121;48.062;7.850;2023-05-02T00:20:06;6.60;;;6.00;;
4214;SDS011;2121;48.062;7.850;2023-05-02T00:22:34;7.63;;;5.30;;
4214;SDS011;2121;48.062;7.850;2023-05-02T00:25:00;5.37;;;4.50;;
4214;SDS011;2121;48.062;7.850;2023-05-02T00:27:26;11.13;;;5.70;;
4214;SDS011;2121;48.062;7.850;2023-05-02T00:29:54;5.57;;;5.07;;
4214;SDS011;2121;48.062;7.850;2023-05-02T00:32:20;6.43;;;5.37;;
4214;SDS011;2121;48.062;7.850;2023-05-02T00:34:46;10.70;;;6.17;;
4214;SDS011;2121;48.062;7.850;2023-05-02T00:37:12;5.67;;;4.87;;
4214;SDS011;2121;48.062;7.850;2023-05-02T00:39:37;11.30;;;6.70;;
4214;SDS011;2121;48.062;7.850;2023-05-02T00:42:03;6.33;;;5.70;;
4214;SDS011;2121;48.062;7.850;2023-05-02T00:44:29;5.70;;;5.20;;
4214;SDS011;2121;48.062;7.850;2023-05-02T00:46:55;5.30;;;4.80;;
4214;SDS011;2121;48.062;7.850;2023-05-02T00:49:22;5.80;;;5.30;;
4214;SDS011;2121;48.062;7.850;2023-05-02T00:51:48;6.30;;;5.20;;
4214;SDS011;2121;48.062;7.850;2023-05-02T00:54:14;11.47;;;5.07;;
4214;SDS011;2121;48.062;7.850;2023-05-02T00:56:40;7.10;;;5.30;;
4214;SDS011;2121;48.062;7.850;2023-05-02T00:59:06;5.60;;;5.10;;
4214;SDS011;2121;48.062;7.850;2023-05-02T01:04:59;6.77;;;4.90;;
4214;SDS011;2121;48.062;7.850;2023-05-02T01:13:21;5.77;;;5.27;;
4214;SDS011;2121;48.062;7.850;2023-05-02T01:15:53;6.20;;;5.60;;
4214;SDS011;2121;48.062;7.850;2023-05-02T01:18:24;6.13;;;5.30;;
4214;SDS011;2121;48.062;7.850;2023-05-02T01:21:08;5.90;;;5.10;;
4214;SDS011;2121;48.062;7.850;2023-05-02T01:29:11;6.70;;;5.13;;
4214;SDS011;2121;48.062;7.850;2023-05-02T01:31:40;5.80;;;5.30;;
4214;SDS011;2121;48.062;7.850;2023-05-02T01:34:10;7.77;;;4.87;;
4214;SDS011;2121;48.062;7.850;2023-05-02T01:36:46;6.90;;;5.30;;
4214;SDS011;2121;48.062;7.850;2023-05-02T01:39:21;5.77;;;4.27;;
4214;SDS011;2121;48.062;7.850;2023-05-02T01:41:49;4.73;;;4.33;;
4214;SDS011;2121;48.062;7.850;2023-05-02T01:44:19;7.17;;;5.00;;
4214;SDS011;2121;48.062;7.850;2023-05-02T01:46:47;5.70;;;5.20;;
4214;SDS011;2121;48.062;7.850;2023-05-02T01:49:16;4.50;;;4.10;;
4214;SDS011;2121;48.062;7.850;2023-05-02T01:51:44;5.50;;;4.70;;
4214;SDS011;2121;48.062;7.850;2023-05-02T01:54:14;6.30;;;5.80;;
4214;SDS011;2121;48.062;7.850;2023-05-02T01:56:41;5.50;;;5.00;;
4214;SDS011;2121;48.062;7.850;2023-05-02T01:59:17;4.90;;;4.40;;
4214;SDS011;2121;48.062;7.850;2023-05-02T02:01:44;6.20;;;5.60;;
4214;SDS011;2121;48.062;7.850;2023-05-02T02:04:12;5.80;;;5.10;;
4214;SDS011;2121;48.062;7.850;2023-05-02T02:06:44;5.60;;;4.33;;
4214;SDS011;2121;48.062;7.850;2023-05-02T02:09:15;6.33;;;4.53;;
4214;SDS011;2121;48.062;7.850;2023-05-02T02:14:27;5.03;;;4.27;;
4214;SDS011;2121;48.062;7.850;2023-05-02T02:17:04;6.00;;;5.50;;
4214;SDS011;2121;48.062;7.850;2023-05-02T02:19:38;4.80;;;4.40;;
4214;SDS011;2121;48.062;7.850;2023-05-02T02:22:05;5.63;;;5.17;;
4214;SDS011;2121;48.062;7.850;2023-05-02T02:24:34;5.10;;;4.60;;
4214;SDS011;2121;48.062;7.850;2023-05-02T02:27:01;9.83;;;5.20;;
4214;SDS011;2121;48.062;7.850;2023-05-02T02:29:27;6.13;;;5.47;;
4214;SDS011;2121;48.062;7.850;2023-05-02T02:31:53;5.33;;;4.83;;
4214;SDS011;2121;48.062;7.850;2023-05-02T02:34:19;5.40;;;5.00;;
4214;SDS011;2121;48.062;7.850;2023-05-02T02:37:08;6.80;;;5.17;;
4214;SDS011;2121;48.062;7.850;2023-05-02T02:45:37;7.13;;;5.30;;
4214;SDS011;2121;48.062;7.850;2023-05-02T02:48:34;4.93;;;4.53;;
4214;SDS011;2121;48.062;7.850;2023-05-02T02:51:10;5.30;;;4.90;;
4214;SDS011;2121;48.062;7.850;2023-05-02T02:57:27;5.37;;;4.83;;
4214;SDS011;2121;48.062;7.850;2023-05-02T03:00:18;5.53;;;4.90;;
4214;SDS011;2121;48.062;7.850;2023-05-02T03:02:48;5.20;;;4.70;;
4214;SDS011;2121;48.062;7.850;2023-05-02T03:05:17;7.03;;;6.17;;
4214;SDS011;2121;48.062;7.850;2023-05-02T03:07:44;7.30;;;5.53;;
4214;SDS011;2121;48.062;7.850;2023-05-02T03:10:10;7.93;;;5.87;;
4214;SDS011;2121;48.062;7.850;2023-05-02T03:12:36;6.17;;;5.23;;
4214;SDS011;2121;48.062;7.850;2023-05-02T03:17:43;5.90;;;5.33;;
4214;SDS011;2121;48.062;7.850;2023-05-02T03:20:09;6.40;;;5.63;;
4214;SDS011;2121;48.062;7.850;2023-05-02T03:22:34;7.33;;;5.07;;
4214;SDS011;2121;48.062;7.850;2023-05-02T03:25:00;5.33;;;4.83;;
4214;SDS011;2121;48.062;7.850;2023-05-02T03:27:26;6.90;;;5.40;;
4214;SDS011;2121;48.062;7.850;2023-05-02T03:29:53;7.00;;;5.73;;
4214;SDS011;2121;48.062;7.850;2023-05-02T03:32:18;6.00;;;5.40;;
4214;SDS011;2121;48.062;7.850;2023-05-02T03:34:44;7.50;;;5.70;;
4214;SDS011;2121;48.062;7.850;2023-05-02T03:37:10;6.37;;;5.80;;
4214;SDS011;2121;48.062;7.850;2023-05-02T03:39:36;6.23;;;5.63;;
4214;SDS011;2121;48.062;7.850;2023-05-02T03:42:01;5.70;;;5.10;;
4214;SDS011;2121;48.062;7.850;2023-05-02T03:44:27;6.30;;;5.70;;
4214;SDS011;2121;48.062;7.850;2023-05-02T03:46:53;6.97;;;6.10;;
4214;SDS011;2121;48.062;7.850;2023-05-02T03:49:19;9.80;;;6.50;;
4214;SDS011;2121;48.062;7.850;2023-05-02T03:51:44;9.10;;;6.00;;
4214;SDS011;2121;48.062;7.850;2023-05-02T03:54:10;9.53;;;5.77;;
4214;SDS011;2121;48.062;7.850;2023-05-02T03:56:35;7.63;;;5.40;;
4214;SDS011;2121;48.062;7.850;2023-05-02T03:59:02;7.13;;;5.13;;
4214;SDS011;2121;48.062;7.850;2023-05-02T04:01:28;5.83;;;5.33;;
4214;SDS011;2121;48.062;7.850;2023-05-02T04:03:53;5.97;;;5.30;;
4214;SDS011;2121;48.062;7.850;2023-05-02T04:06:19;8.07;;;5.43;;
4214;SDS011;2121;48.062;7.850;2023-05-02T04:08:45;6.77;;;5.90;;
4214;SDS011;2121;48.062;7.850;2023-05-02T04:11:11;6.57;;;5.97;;
4214;SDS011;2121;48.062;7.850;2023-05-02T04:13:36;6.10;;;5.50;;
4214;SDS011;2121;48.062;7.850;2023-05-02T04:16:02;6.83;;;6.03;;
4214;SDS011;2121;48.062;7.850;2023-05-02T04:18:28;6.30;;;5.70;;
4214;SDS011;2121;48.062;7.850;2023-05-02T04:20:55;6.93;;;6.30;;
4214;SDS011;2121;48.062;7.850;2023-05-02T04:23:20;6.53;;;5.33;;
4214;SDS011;2121;48.062;7.850;2023-05-02T04:25:55;6.17;;;5.40;;
4214;SDS011;2121;48.062;7.850;2023-05-02T04:28:21;6.33;;;5.73;;
4214;SDS011;2121;48.062;7.850;2023-05-02T04:30:49;9.83;;;5.90;;
4214;SDS011;2121;48.062;7.850;2023-05-02T04:33:16;6.23;;;5.33;;
4214;SDS011;2121;48.062;7.850;2023-05-02T04:35:42;8.90;;;5.23;;
4214;SDS011;2121;48.062;7.850;2023-05-02T04:38:08;5.50;;;5.03;;
4214;SDS011;2121;48.062;7.850;2023-05-02T04:40:34;7.70;;;6.07;;
4214;SDS011;2121;48.062;7.850;2023-05-02T04:43:00;5.73;;;5.23;;
4214;SDS011;2121;48.062;7.850;2023-05-02T04:45:26;8.50;;;5.93;;
4214;SDS011;2121;48.062;7.850;2023-05-02T04:47:52;6.57;;;5.97;;
4214;SDS011;2121;48.062;7.850;2023-05-02T04:50:18;6.20;;;5.60;;
4214;SDS011;2121;48.062;7.850;2023-05-02T04:52:43;12.00;;;5.40;;
4214;SDS011;2121;48.062;7.850;2023-05-02T04:55:09;7.13;;;6.03;;
4214;SDS011;2121;48.062;7.850;2023-05-02T04:57:35;6.23;;;5.63;;
4214;SDS011;2121;48.062;7.850;2023-05-02T05:00:01;13.10;;;5.50;;
4214;SDS011;2121;48.062;7.850;2023-05-02T05:02:26;8.30;;;6.60;;
4214;SDS011;2121;48.062;7.850;2023-05-02T05:04:52;7.43;;;5.73;;
4214;SDS011;2121;48.062;7.850;2023-05-02T05:07:18;9.23;;;6.67;;
4214;SDS011;2121;48.062;7.850;2023-05-02T05:09:44;11.20;;;7.10;;
4214;SDS011;2121;48.062;7.850;2023-05-02T05:12:10;8.13;;;6.70;;
4214;SDS011;2121;48.062;7.850;2023-05-02T05:14:35;16.03;;;6.83;;
4214;SDS011;2121;48.062;7.850;2023-05-02T05:17:01;5.80;;;5.30;;
4214;SDS011;2121;48.062;7.850;2023-05-02T05:19:27;6.77;;;5.97;;
4214;SDS011;2121;48.062;7.850;2023-05-02T05:21:53;6.10;;;5.60;;
4214;SDS011;2121;48.062;7.850;2023-05-02T05:24:18;6.53;;;5.83;;
4214;SDS011;2121;48.062;7.850;2023-05-02T05:26:44;6.63;;;5.93;;
4214;SDS011;2121;48.062;7.850;2023-05-02T05:29:10;6.90;;;6.30;;
4214;SDS011;2121;48.062;7.850;2023-05-02T05:31:35;7.10;;;6.50;;
4214;SDS011;2121;48.062;7.850;2023-05-02T05:34:01;13.87;;;7.17;;
4214;SDS011;2121;48.062;7.850;2023-05-02T05:36:28;7.83;;;6.47;;
4214;SDS011;2121;48.062;7.850;2023-05-02T05:38:55;6.50;;;5.83;;
4214;SDS011;2121;48.062;7.850;2023-05-02T05:41:21;6.40;;;5.80;;
4214;SDS011;2121;48.062;7.850;2023-05-02T05:43:48;6.43;;;5.83;;
4214;SDS011;2121;48.062;7.850;2023-05-02T05:46:14;8.60;;;6.03;;
4214;SDS011;2121;48.062;7.850;2023-05-02T05:48:40;8.30;;;7.17;;
4214;SDS011;2121;48.062;7.850;2023-05-02T05:51:05;13.07;;;6.10;;
4214;SDS011;2121;48.062;7.850;2023-05-02T05:53:31;8.87;;;6.73;;
4214;SDS011;2121;48.062;7.850;2023-05-02T05:55:58;5.90;;;5.40;;
4214;SDS011;2121;48.062;7.850;2023-05-02T05:58:23;6.13;;;5.60;;
4214;SDS011;2121;48.062;7.850;2023-05-02T06:00:49;16.83;;;6.93;;
4214;SDS011;2121;48.062;7.850;2023-05-02T06:03:16;7.30;;;5.87;;
4214;SDS011;2121;48.062;7.850;2023-05-02T06:05:41;5.83;;;5.33;;
4214;SDS011;2121;48.062;7.850;2023-05-02T06:08:07;6.17;;;5.53;;
4214;SDS011;2121;48.062;7.850;2023-05-02T06:10:33;6.80;;;5.63;;
4214;SDS011;2121;48.062;7.850;2023-05-02T06:12:58;6.80;;;6.20;;
4214;SDS011;2121;48.062;7.850;2023-05-02T06:15:24;6.00;;;5.47;;
4214;SDS011;2121;48.062;7.850;2023-05-02T06:17:50;6.70;;;5.83;;
4214;SDS011;2121;48.062;7.850;2023-05-02T06:20:16;5.03;;;4.63;;
4214;SDS011;2121;48.062;7.850;2023-05-02T06:22:42;11.93;;;5.60;;
4214;SDS011;2121;48.062;7.850;2023-05-02T06:25:08;7.80;;;5.83;;
4214;SDS011;2121;48.062;7.850;2023-05-02T06:27:34;7.53;;;5.97;;
4214;SDS011;2121;48.062;7.850;2023-05-02T06:30:00;6.83;;;6.07;;
4214;SDS011;2121;48.062;7.850;2023-05-02T06:32:29;7.00;;;6.13;;
4214;SDS011;2121;48.062;7.850;2023-05-02T06:34:58;8.10;;;6.30;;
4214;SDS011;2121;48.062;7.850;2023-05-02T06:37:24;9.30;;;7.37;;
4214;SDS011;2121;48.062;7.850;2023-05-02T06:39:49;8.47;;;6.37;;
4214;SDS011;2121;48.062;7.850;2023-05-02T06:42:15;6.63;;;5.73;;
4214;SDS011;2121;48.062;7.850;2023-05-02T06:44:41;6.60;;;6.00;;
4214;SDS011;2121;48.062;7.850;2023-05-02T06:47:07;7.93;;;6.17;;
4214;SDS011;2121;48.062;7.850;2023-05-02T06:49:32;6.83;;;6.10;;
4214;SDS011;2121;48.062;7.850;2023-05-02T06:51:58;9.77;;;6.23;;
4214;SDS011;2121;48.062;7.850;2023-05-02T06:54:24;8.17;;;7.10;;
4214;SDS011;2121;48.062;7.850;2023-05-02T06:56:50;7.87;;;7.17;;
4214;SDS011;2121;48.062;7.850;2023-05-02T06:59:16;10.90;;;7.40;;
4214;SDS011;2121;48.062;7.850;2023-05-02T07:01:44;11.00;;;8.80;;
4214;SDS011;2121;48.062;7.850;2023-05-02T07:04:10;9.27;;;8.37;;
4214;SDS011;2121;48.062;7.850;2023-05-02T07:06:36;12.13;;;9.60;;
4214;SDS011;2121;48.062;7.850;2023-05-02T07:09:01;8.67;;;7.77;;
4214;SDS011;2121;48.062;7.850;2023-05-02T07:11:27;10.10;;;8.30;;
4214;SDS011;2121;48.062;7.850;2023-05-02T07:13:53;10.40;;;9.40;;
4214;SDS011;2121;48.062;7.850;2023-05-02T07:16:19;13.97;;;8.20;;
4214;SDS011;2121;48.062;7.850;2023-05-02T07:18:45;10.60;;;9.50;;
4214;SDS011;2121;48.062;7.850;2023-05-02T07:21:13;10.30;;;8.53;;
4214;SDS011;2121;48.062;7.850;2023-05-02T07:23:39;13.50;;;8.83;;
4214;SDS011;2121;48.062;7.850;2023-05-02T07:26:05;9.57;;;8.07;;
4214;SDS011;2121;48.062;7.850;2023-05-02T07:28:31;8.63;;;7.80;;
4214;SDS011;2121;48.062;7.850;2023-05-02T07:30:57;9.73;;;8.57;;
4214;SDS011;2121;48.062;7.850;2023-05-02T07:33:23;8.77;;;7.90;;
4214;SDS011;2121;48.062;7.850;2023-05-02T07:35:49;11.03;;;8.80;;
4214;SDS011;2121;48.062;7.850;2023-05-02T07:38:15;12.00;;;10.13;;
4214;SDS011;2121;48.062;7.850;2023-05-02T07:40:41;11.13;;;9.93;;
4214;SDS011;2121;48.062;7.850;2023-05-02T07:43:07;10.40;;;8.40;;
4214;SDS011;2121;48.062;7.850;2023-05-02T07:45:34;10.67;;;8.80;;
4214;SDS011;2121;48.062;7.850;2023-05-02T07:47:59;10.63;;;9.20;;
4214;SDS011;2121;48.062;7.850;2023-05-02T07:50:25;9.43;;;8.47;;
4214;SDS011;2121;48.062;7.850;2023-05-02T07:52:51;9.87;;;8.23;;
4214;SDS011;2121;48.062;7.850;2023-05-02T07:55:19;10.90;;;8.43;;
4214;SDS011;2121;48.062;7.850;2023-05-02T07:57:45;12.87;;;9.73;;
4214;SDS011;2121;48.062;7.850;2023-05-02T08:00:11;8.73;;;8.00;;
4214;SDS011;2121;48.062;7.850;2023-05-02T08:02:38;11.83;;;10.03;;
4214;SDS011;2121;48.062;7.850;2023-05-02T08:05:05;9.57;;;8.57;;
4214;SDS011;2121;48.062;7.850;2023-05-02T08:07:32;10.60;;;9.60;;
4214;SDS011;2121;48.062;7.850;2023-05-02T08:09:59;11.30;;;10.10;;
4214;SDS011;2121;48.062;7.850;2023-05-02T08:12:25;15.70;;;11.27;;
4214;SDS011;2121;48.062;7.850;2023-05-02T08:14:51;13.40;;;10.60;;
4214;SDS011;2121;48.062;7.850;2023-05-02T08:17:17;11.47;;;10.37;;
4214;SDS011;2121;48.062;7.850;2023-05-02T08:19:43;13.93;;;9.90;;
4214;SDS011;2121;48.062;7.850;2023-05-02T08:22:09;11.63;;;10.43;;
4214;SDS011;2121;48.062;7.850;2023-05-02T08:24:35;11.93;;;10.33;;
4214;SDS011;2121;48.062;7.850;2023-05-02T08:27:00;12.50;;;11.20;;
4214;SDS011;2121;48.062;7.850;2023-05-02T08:29:30;16.23;;;12.27;;
4214;SDS011;2121;48.062;7.850;2023-05-02T08:31:56;12.10;;;10.20;;
4214;SDS011;2121;48.062;7.850;2023-05-02T08:34:22;11.23;;;9.80;;
4214;SDS011;2121;48.062;7.850;2023-05-02T08:36:48;9.73;;;8.80;;
4214;SDS011;2121;48.062;7.850;2023-05-02T08:39:14;10.73;;;9.63;;
4214;SDS011;2121;48.062;7.850;2023-05-02T08:41:41;10.67;;;9.70;;
4214;SDS011;2121;48.062;7.850;2023-05-02T08:44:06;11.60;;;10.43;;
4214;SDS011;2121;48.062;7.850;2023-05-02T08:46:34;15.63;;;10.83;;
4214;SDS011;2121;48.062;7.850;2023-05-02T08:49:01;11.10;;;9.00;;
4214;SDS011;2121;48.062;7.850;2023-05-02T08:51:28;11.20;;;9.03;;
4214;SDS011;2121;48.062;7.850;2023-05-02T08:53:59;9.27;;;8.37;;
4214;SDS011;2121;48.062;7.850;2023-05-02T08:56:27;12.97;;;9.90;;
4214;SDS011;2121;48.062;7.850;2023-05-02T08:58:53;10.53;;;8.50;;
4214;SDS011;2121;48.062;7.850;2023-05-02T09:01:21;12.97;;;10.37;;
4214;SDS011;2121;48.062;7.850;2023-05-02T09:03:48;11.30;;;9.20;;
4214;SDS011;2121;48.062;7.850;2023-05-02T09:06:15;10.53;;;8.97;;
4214;SDS011;2121;48.062;7.850;2023-05-02T09:08:46;19.10;;;11.07;;
4214;SDS011;2121;48.062;7.850;2023-05-02T09:11:15;7.90;;;7.10;;
4214;SDS011;2121;48.062;7.850;2023-05-02T09:13:42;8.90;;;7.90;;
4214;SDS011;2121;48.062;7.850;2023-05-02T09:16:12;8.30;;;7.50;;
4214;SDS011;2121;48.062;7.850;2023-05-02T09:18:40;7.60;;;6.90;;
4214;SDS011;2121;48.062;7.850;2023-05-02T09:21:10;10.50;;;7.70;;
4214;SDS011;2121;48.062;7.850;2023-05-02T09:23:40;8.20;;;7.50;;
4214;SDS011;2121;48.062;7.850;2023-05-02T09:28:51;11.00;;;9.13;;
4214;SDS011;2121;48.062;7.850;2023-05-02T09:31:28;8.53;;;7.73;;
4214;SDS011;2121;48.062;7.850;2023-05-02T09:34:14;8.23;;;7.53;;
4214;SDS011;2121;48.062;7.850;2023-05-02T09:36:42;11.30;;;6.40;;
4214;SDS011;2121;48.062;7.850;2023-05-02T09:39:09;8.50;;;7.70;;
4214;SDS011;2121;48.062;7.850;2023-05-02T09:41:38;7.10;;;6.40;;
4214;SDS011;2121;48.062;7.850;2023-05-02T09:44:12;8.70;;;6.57;;
4214;SDS011;2121;48.062;7.850;2023-05-02T09:46:47;7.70;;;6.70;;
4214;SDS011;2121;48.062;7.850;2023-05-02T09:49:15;7.57;;;6.87;;
4214;SDS011;2121;48.062;7.850;2023-05-02T09:51:45;9.77;;;7.20;;
4214;SDS011;2121;48.062;7.850;2023-05-02T09:54:12;7.23;;;6.60;;
4214;SDS011;2121;48.062;7.850;2023-05-02T09:56:55;12.23;;;8.33;;
4214;SDS011;2121;48.062;7.850;2023-05-02T09:59:21;9.90;;;8.90;;
4214;SDS011;2121;48.062;7.850;2023-05-02T10:01:54;9.40;;;8.47;;
4214;SDS011;2121;48.062;7.850;2023-05-02T10:04:22;9.47;;;8.50;;
4214;SDS011;2121;48.062;7.850;2023-05-02T10:06:50;9.73;;;8.60;;
4214;SDS011;2121;48.062;7.850;2023-05-02T10:09:18;9.30;;;8.40;;
4214;SDS011;2121;48.062;7.850;2023-05-02T10:11:45;10.97;;;8.37;;
4214;SDS011;2121;48.062;7.850;2023-05-02T10:14:15;10.40;;;9.40;;
4214;SDS011;2121;48.062;7.850;2023-05-02T10:17:00;8.80;;;7.90;;
4214;SDS011;2121;48.062;7.850;2023-05-02T10:19:44;9.70;;;7.57;;
4214;SDS011;2121;48.062;7.850;2023-05-02T10:22:18;10.73;;;8.60;;
4214;SDS011;2121;48.062;7.850;2023-05-02T10:24:48;9.10;;;8.20;;
4214;SDS011;2121;48.062;7.850;2023-05-02T10:27:14;7.90;;;7.10;;
4214;SDS011;2121;48.062;7.850;2023-05-02T10:29:41;10.93;;;7.60;;
4214;SDS011;2121;48.062;7.850;2023-05-02T10:32:06;15.20;;;7.87;;
4214;SDS011;2121;48.062;7.850;2023-05-02T10:34:33;9.30;;;7.50;;
4214;SDS011;2121;48.062;7.850;2023-05-02T10:37:00;10.70;;;7.90;;
4214;SDS011;2121;48.062;7.850;2023-05-02T10:39:27;15.43;;;9.57;;
4214;SDS011;2121;48.062;7.850;2023-05-02T10:41:53;14.03;;;9.03;;
4214;SDS011;2121;48.062;7.850;2023-05-02T10:47:16;10.60;;;9.43;;
4214;SDS011;2121;48.062;7.850;2023-05-02T10:49:48;14.83;;;9.10;;
4214;SDS011;2121;48.062;7.850;2023-05-02T10:52:28;12.97;;;10.97;;
4214;SDS011;2121;48.062;7.850;2023-05-02T10:55:17;11.30;;;10.00;;
4214;SDS011;2121;48.062;7.850;2023-05-02T11:02:56;12.93;;;10.40;;
4214;SDS011;2121;48.062;7.850;2023-05-02T11:05:22;11.43;;;10.07;;
4214;SDS011;2121;48.062;7.850;2023-05-02T11:07:49;11.83;;;10.63;;
4214;SDS011;2121;48.062;7.850;2023-05-02T11:10:41;12.30;;;10.07;;
4214;SDS011;2121;48.062;7.850;2023-05-02T11:13:07;10.03;;;9.00;;
4214;SDS011;2121;48.062;7.850;2023-05-02T11:20:31;10.37;;;9.23;;
4214;SDS011;2121;48.062;7.850;2023-05-02T11:25:39;10.13;;;8.57;;
4214;SDS011;2121;48.062;7.850;2023-05-02T11:28:38;12.27;;;10.97;;
4214;SDS011;2121;48.062;7.850;2023-05-02T11:31:09;9.97;;;8.93;;
4214;SDS011;2121;48.062;7.850;2023-05-02T11:34:01;14.60;;;8.97;;
4214;SDS011;2121;48.062;7.850;2023-05-02T11:36:31;10.50;;;9.40;;
4214;SDS011;2121;48.062;7.850;2023-05-02T11:38:59;11.63;;;9.53;;
4214;SDS011;2121;48.062;7.850;2023-05-02T11:41:38;9.50;;;8.30;;
4214;SDS011;2121;48.062;7.850;2023-05-02T11:44:04;11.03;;;9.87;;
4214;SDS011;2121;48.062;7.850;2023-05-02T11:46:30;14.60;;;10.30;;
4214;SDS011;2121;48.062;7.850;2023-05-02T11:48:57;13.57;;;10.37;;
4214;SDS011;2121;48.062;7.850;2023-05-02T11:51:23;14.10;;;10.37;;
4214;SDS011;2121;48.062;7.850;2023-05-02T11:53:50;10.43;;;9.23;;
4214;SDS011;2121;48.062;7.850;2023-05-02T11:56:16;9.50;;;8.50;;
4214;SDS011;2121;48.062;7.850;2023-05-02T11:59:00;10.50;;;8.23;;
4214;SDS011;2121;48.062;7.850;2023-05-02T12:01:28;9.30;;;8.03;;
4214;SDS011;2121;48.062;7.850;2023-05-02T12:04:04;11.73;;;9.37;;
4214;SDS011;2121;48.062;7.850;2023-05-02T12:06:32;16.73;;;10.03;;
4214;SDS011;2121;48.062;7.850;2023-05-02T12:09:05;12.20;;;9.00;;
4214;SDS011;2121;48.062;7.850;2023-05-02T12:11:33;10.17;;;9.13;;
4214;SDS011;2121;48.062;7.850;2023-05-02T12:13:59;9.97;;;8.20;;
4214;SDS011;2121;48.062;7.850;2023-05-02T12:16:27;7.53;;;6.83;;
4214;SDS011;2121;48.062;7.850;2023-05-02T12:18:53;9.23;;;6.40;;
4214;SDS011;2121;48.062;7.850;2023-05-02T12:21:22;8.43;;;7.70;;
4214;SDS011;2121;48.062;7.850;2023-05-02T12:23:47;10.60;;;7.50;;
4214;SDS011;2121;48.062;7.850;2023-05-02T12:26:20;8.60;;;7.00;;
4214;SDS011;2121;48.062;7.850;2023-05-02T12:28:52;8.17;;;6.60;;
4214;SDS011;2121;48.062;7.850;2023-05-02T12:31:19;11.57;;;8.80;;
4214;SDS011;2121;48.062;7.850;2023-05-02T12:33:45;8.20;;;7.40;;
4214;SDS011;2121;48.062;7.850;2023-05-02T12:36:16;11.00;;;8.40;;
4214;SDS011;2121;48.062;7.850;2023-05-02T12:38:53;11.30;;;9.20;;
4214;SDS011;2121;48.062;7.850;2023-05-02T12:41:36;9.90;;;8.50;;
4214;SDS011;2121;48.062;7.850;2023-05-02T12:44:06;9.60;;;8.13;;
4214;SDS011;2121;48.062;7.850;2023-05-02T12:46:32;7.97;;;7.17;;
4214;SDS011;2121;48.062;7.850;2023-05-02T12:49:01;8.33;;;6.00;;
4214;SDS011;2121;48.062;7.850;2023-05-02T12:51:36;11.93;;;7.90;;
4214;SDS011;2121;48.062;7.850;2023-05-02T12:54:03;8.60;;;7.57;;
4214;SDS011;2121;48.062;7.850;2023-05-02T12:56:37;6.50;;;5.90;;
4214;SDS011;2121;48.062;7.850;2023-05-02T12:59:04;6.67;;;5.97;;
4214;SDS011;2121;48.062;7.850;2023-05-02T13:01:31;6.60;;;6.00;;
4214;SDS011;2121;48.062;7.850;2023-05-02T13:03:58;6.50;;;5.80;;
4214;SDS011;2121;48.062;7.850;2023-05-02T13:06:24;6.60;;;6.00;;
4214;SDS011;2121;48.062;7.850;2023-05-02T13:08:50;6.83;;;5.87;;
4214;SDS011;2121;48.062;7.850;2023-05-02T13:11:15;4.90;;;4.40;;
4214;SDS011;2121;48.062;7.850;2023-05-02T13:13:41;8.40;;;5.40;;
4214;SDS011;2121;48.062;7.850;2023-05-02T13:16:07;7.10;;;5.60;;
4214;SDS011;2121;48.062;7.850;2023-05-02T13:18:33;6.27;;;5.57;;
4214;SDS011;2121;48.062;7.850;2023-05-02T13:20:59;6.23;;;4.93;;
4214;SDS011;2121;48.062;7.850;2023-05-02T13:23:24;6.87;;;5.77;;
4214;SDS011;2121;48.062;7.850;2023-05-02T13:25:50;5.47;;;4.90;;
4214;SDS011;2121;48.062;7.850;2023-05-02T13:28:16;4.97;;;4.53;;
4214;SDS011;2121;48.062;7.850;2023-05-02T13:30:42;4.97;;;4.57;;
4214;SDS011;2121;48.062;7.850;2023-05-02T13:33:08;5.10;;;4.60;;
4214;SDS011;2121;48.062;7.850;2023-05-02T13:35:34;6.03;;;4.53;;
4214;SDS011;2121;48.062;7.850;2023-05-02T13:38:00;4.80;;;4.40;;
4214;SDS011;2121;48.062;7.850;2023-05-02T13:40:25;4.30;;;3.87;;
4214;SDS011;2121;48.062;7.850;2023-05-02T13:42:51;6.90;;;4.80;;
4214;SDS011;2121;48.062;7.850;2023-05-02T13:45:17;4.70;;;4.30;;
4214;SDS011;2121;48.062;7.850;2023-05-02T13:47:43;7.00;;;5.20;;
4214;SDS011;2121;48.062;7.850;2023-05-02T13:50:08;4.20;;;3.83;;
4214;SDS011;2121;48.062;7.850;2023-05-02T13:52:35;3.70;;;3.40;;
4214;SDS011;2121;48.062;7.850;2023-05-02T13:55:01;7.50;;;3.87;;
4214;SDS011;2121;48.062;7.850;2023-05-02T13:57:27;3.80;;;3.37;;
4214;SDS011;2121;48.062;7.850;2023-05-02T13:59:52;4.30;;;3.40;;
4214;SDS011;2121;48.062;7.850;2023-05-02T14:02:18;3.27;;;3.07;;
4214;SDS011;2121;48.062;7.850;2023-05-02T14:04:44;4.30;;;3.90;;
4214;SDS011;2121;48.062;7.850;2023-05-02T14:07:10;4.27;;;3.90;;
4214;SDS011;2121;48.062;7.850;2023-05-02T14:09:35;4.97;;;4.40;;
4214;SDS011;2121;48.062;7.850;2023-05-02T14:12:01;4.30;;;3.90;;
4214;SDS011;2121;48.062;7.850;2023-05-02T14:14:27;4.23;;;3.93;;
4214;SDS011;2121;48.062;7.850;2023-05-02T14:16:52;7.63;;;6.20;;
4214;SDS011;2121;48.062;7.850;2023-05-02T14:19:18;5.87;;;5.37;;
4214;SDS011;2121;48.062;7.850;2023-05-02T14:21:44;8.30;;;6.57;;
4214;SDS011;2121;48.062;7.850;2023-05-02T14:24:10;7.87;;;7.17;;
4214;SDS011;2121;48.062;7.850;2023-05-02T14:26:36;6.30;;;5.77;;
4214;SDS011;2121;48.062;7.850;2023-05-02T14:29:02;6.00;;;5.40;;
4214;SDS011;2121;48.062;7.850;2023-05-02T14:31:28;6.33;;;5.70;;
4214;SDS011;2121;48.062;7.850;2023-05-02T14:33:53;7.80;;;5.00;;
4214;SDS011;2121;48.062;7.850;2023-05-02T14:36:19;7.37;;;5.20;;
4214;SDS011;2121;48.062;7.850;2023-05-02T14:38:45;7.60;;;6.80;;
4214;SDS011;2121;48.062;7.850;2023-05-02T14:41:11;6.83;;;6.23;;
4214;SDS011;2121;48.062;7.850;2023-05-02T14:43:36;6.80;;;6.10;;
4214;SDS011;2121;48.062;7.850;2023-05-02T14:46:03;7.23;;;5.47;;
4214;SDS011;2121;48.062;7.850;2023-05-02T14:48:29;10.13;;;7.47;;
4214;SDS011;2121;48.062;7.850;2023-05-02T14:50:55;8.23;;;7.50;;
4214;SDS011;2121;48.062;7.850;2023-05-02T14:53:22;8.40;;;7.60;;
4214;SDS011;2121;48.062;7.850;2023-05-02T14:55:48;13.00;;;9.30;;
4214;SDS011;2121;48.062;7.850;2023-05-02T14:58:14;11.43;;;9.20;;
4214;SDS011;2121;48.062;7.850;2023-05-02T15:00:44;13.70;;;10.17;;
4214;SDS011;2121;48.062;7.850;2023-05-02T15:03:10;13.97;;;9.60;;
4214;SDS011;2121;48.062;7.850;2023-05-02T15:05:36;10.73;;;9.23;;
4214;SDS011;2121;48.062;7.850;2023-05-02T15:08:02;13.60;;;8.93;;
4214;SDS011;2121;48.062;7.850;2023-05-02T15:10:28;17.07;;;13.00;;
4214;SDS011;2121;48.062;7.850;2023-05-02T15:12:54;16.57;;;9.90;;
4214;SDS011;2121;48.062;7.850;2023-05-02T15:15:20;11.57;;;9.50;;
4214;SDS011;2121;48.062;7.850;2023-05-02T15:17:50;16.43;;;11.17;;
4214;SDS011;2121;48.062;7.850;2023-05-02T15:20:16;13.30;;;10.60;;
4214;SDS011;2121;48.062;7.850;2023-05-02T15:22:42;11.33;;;9.83;;
4214;SDS011;2121;48.062;7.850;2023-05-02T15:25:08;10.73;;;9.73;;
4214;SDS011;2121;48.062;7.850;2023-05-02T15:27:34;9.07;;;8.17;;
4214;SDS011;2121;48.062;7.850;2023-05-02T15:30:00;11.93;;;9.50;;
4214;SDS011;2121;48.062;7.850;2023-05-02T15:32:30;14.17;;;10.33;;
4214;SDS011;2121;48.062;7.850;2023-05-02T15:34:56;10.23;;;9.07;;
4214;SDS011;2121;48.062;7.850;2023-05-02T15:37:22;11.93;;;8.47;;
4214;SDS011;2121;48.062;7.850;2023-05-02T15:39:48;10.30;;;9.20;;
4214;SDS011;2121;48.062;7.850;2023-05-02T15:42:14;11.50;;;9.00;;
4214;SDS011;2121;48.062;7.850;2023-05-02T15:44:40;11.20;;;9.43;;
4214;SDS011;2121;48.062;7.850;2023-05-02T15:47:06;10.67;;;9.60;;
4214;SDS011;2121;48.062;7.850;2023-05-02T15:49:32;10.83;;;9.17;;
4214;SDS011;2121;48.062;7.850;2023-05-02T15:51:58;11.20;;;9.70;;
4214;SDS011;2121;48.062;7.850;2023-05-02T15:54:24;10.30;;;8.47;;
4214;SDS011;2121;48.062;7.850;2023-05-02T15:56:50;9.93;;;8.80;;
4214;SDS011;2121;48.062;7.850;2023-05-02T15:59:16;9.43;;;7.70;;
4214;SDS011;2121;48.062;7.850;2023-05-02T16:01:43;11.33;;;9.00;;